LEZL/SVQ METAR and TAF weather

Enter ICAO airport designator
Station Type Date Time Source
LEZL METAR 2019/10/23 20:30 UTC NOAA

LEZL 232030Z 25008KT 9999 FEW045 16/10 Q1015 NOSIG


Station Type Date Time Source
LEZL Decoded METAR 2019/10/23 20:30 UTC NOAA

Sevilla / San Pablo, Spain (LEZL) 37-25N 005-54W 31M
Oct 23, 2019 - 04:30 PM EDT / 2019.10.23 2030 UTC
Wind: from the WSW (250 degrees) at 9 MPH (8 KT):0
Visibility: greater than 7 mile(s):0
Sky conditions: mostly clear
Temperature: 60 F (16 C)
Dew Point: 50 F (10 C)
Relative Humidity: 67%
Pressure (altimeter): 29.97 in. Hg (1015 hPa)
ob: LEZL 232030Z 25008KT 9999 FEW045 16/10 Q1015 NOSIG
cycle: 20

Station Type Date Time Source
LEZL TAF 2019/10/23 21:27 UTC NOAA

TAF LEZL 232000Z 2321/2421 24005KT 9999 FEW040 TX22/2414Z TN09/2406Z

Example: see airport list